40D weather

Three Lakes Municipal Airport
Three Lakes, Wisconsin, United States

Public forecast

Using degrees Fahrenheit for public forecast. Weather courtesy of forecast.io.

Closest aviation weather report (METAR) to Three Lakes Municipal Airport

Closest report is Eagle River Union Airport, 10.5 nm (19.5 km) NW. Retrieved 2019/10/13 21:35 UTC (0 seconds ago):

KEGV 132135Z AUTO 26011G17KT 10SM OVC016 03/00 A2966 RMK AO2 T00300001

Closest aviation forecast (TAF) to Three Lakes Municipal Airport

Closest forecast is Rhinelander Oneida County Airport, 17.4 nm (32.2 km) WSW. Retrieved 2019/10/13 18:22 UTC (3 hours ago):

TAF KRHI 131720Z 1318/1418 26012G20KT P6SM VCSH BKN018 TEMPO 1318/1322 2SM -SHSN BKN009 FM132300 27009G14KT P6SM VCSH BKN028 FM140300 27008KT P6SM BKN022 FM140900 28007KT P6SM BKN018 FM141600 26009G15KT P6SM BKN025